Time;durP1;ratioP1;P1;durP2;ratioP2;P2;SDS_P1;SDS_P2;PMS_P1;PMS_P2;Temp;Humidity;BMP_temperature;BMP_pressure;BME280_temperature;BME280_humidity;BME280_pressure;Samples;Min_cycle;Max_cycle;Signal;HPM_P1;HPM_P2
2022/04/06 00:00:10;;;;;;;11.95;4.55;;;9.90;92.90;;;;;;4937607;29;20028;-76
2022/04/06 00:02:40;;;;;;;11.02;4.75;;;9.90;93.10;;;;;;4937756;29;20055;-75
2022/04/06 00:05:10;;;;;;;11.75;4.53;;;9.90;93.40;;;;;;4937879;29;20028;-76
2022/04/06 00:07:40;;;;;;;12.45;4.03;;;9.90;93.70;;;;;;4937845;29;20151;-75
2022/04/06 00:10:07;;;;;;;12.32;4.70;;;9.90;93.90;;;;;;4938141;29;20500;-75
2022/04/06 00:12:34;;;;;;;9.82;4.03;;;9.90;93.70;;;;;;4937614;29;20028;-76
2022/04/06 00:15:00;;;;;;;6.68;3.97;;;9.90;93.80;;;;;;4937430;29;20514;-75
2022/04/06 00:17:26;;;;;;;8.48;4.55;;;9.90;93.80;;;;;;4937683;29;20027;-75
2022/04/06 00:19:51;;;;;;;11.55;4.40;;;9.90;94.00;;;;;;4920669;29;20024;-75
2022/04/06 00:22:17;;;;;;;9.63;5.18;;;9.80;93.70;;;;;;4937026;29;20027;-76
2022/04/06 00:24:43;;;;;;;10.52;4.78;;;9.80;92.90;;;;;;4937709;29;20083;-75
2022/04/06 00:27:09;;;;;;;11.60;4.63;;;9.80;92.40;;;;;;4937505;29;20102;-75
2022/04/06 00:29:34;;;;;;;6.68;3.80;;;9.80;92.70;;;;;;4937491;29;20107;-75
2022/04/06 00:32:00;;;;;;;8.38;3.95;;;9.70;92.50;;;;;;4936367;29;20415;-75
2022/04/06 00:37:10;;;;;;;7.47;3.90;;;9.70;92.80;;;;;;4937137;29;20055;-76
2022/04/06 00:39:36;;;;;;;10.88;3.88;;;9.70;93.20;;;;;;4937040;29;20031;-75
2022/04/06 00:42:01;;;;;;;8.18;4.35;;;9.70;93.60;;;;;;4937148;29;20056;-75
2022/04/06 00:44:28;;;;;;;16.00;4.07;;;9.60;93.70;;;;;;4919501;29;20016;-75
2022/04/06 00:46:54;;;;;;;11.02;4.28;;;9.60;94.00;;;;;;4937304;29;20066;-75
2022/04/06 00:49:20;;;;;;;9.23;4.30;;;9.60;94.10;;;;;;4936953;29;20444;-75
2022/04/06 00:51:47;;;;;;;10.65;4.30;;;9.50;94.00;;;;;;4937083;29;20035;-75
2022/04/06 00:54:15;;;;;;;11.55;5.32;;;9.50;94.40;;;;;;4957746;28;20107;-75
2022/04/06 00:56:42;;;;;;;18.08;5.03;;;9.50;94.00;;;;;;4956129;28;20085;-75
2022/04/06 00:59:09;;;;;;;10.32;5.10;;;9.50;94.30;;;;;;4955843;28;20066;-75
2022/04/06 01:01:35;;;;;;;13.13;5.32;;;9.40;94.60;;;;;;4956084;28;20032;-76
2022/04/06 01:04:01;;;;;;;8.43;4.82;;;9.40;95.20;;;;;;4956349;28;20031;-75
2022/04/06 01:06:27;;;;;;;9.63;4.60;;;9.30;94.90;;;;;;4955895;28;20106;-75
2022/04/06 01:08:53;;;;;;;13.45;5.30;;;9.20;94.90;;;;;;4955738;28;20023;-75
2022/04/06 01:11:20;;;;;;;14.82;6.00;;;9.20;95.00;;;;;;4955581;28;20035;-75
2022/04/06 01:13:46;;;;;;;11.15;5.40;;;9.20;94.70;;;;;;4954456;28;20550;-75
2022/04/06 01:16:12;;;;;;;8.80;4.82;;;9.20;95.40;;;;;;4955610;28;20047;-76
2022/04/06 01:18:39;;;;;;;10.20;5.30;;;9.20;95.70;;;;;;4955527;28;20035;-75
2022/04/06 01:21:05;;;;;;;14.65;5.68;;;9.10;96.00;;;;;;4955611;28;20103;-76
2022/04/06 01:23:31;;;;;;;12.13;5.72;;;9.00;95.90;;;;;;4954659;28;20106;-75
2022/04/06 01:25:57;;;;;;;10.15;5.28;;;9.10;96.50;;;;;;4955731;29;20023;-76
2022/04/06 01:28:24;;;;;;;10.10;5.07;;;9.10;96.50;;;;;;4955016;28;20066;-75
2022/04/06 01:30:50;;;;;;;12.73;5.20;;;9.10;96.30;;;;;;4955723;28;20475;-76
2022/04/06 01:33:16;;;;;;;8.35;5.10;;;9.00;96.00;;;;;;4954668;28;20046;-75
2022/04/06 01:35:42;;;;;;;9.98;5.03;;;8.90;95.90;;;;;;4955181;28;20369;-76
2022/04/06 01:38:08;;;;;;;10.95;5.00;;;9.00;95.80;;;;;;4955454;28;20073;-75
2022/04/06 01:40:34;;;;;;;9.98;4.55;;;8.90;96.10;;;;;;4954941;28;20016;-75
2022/04/06 01:43:00;;;;;;;9.82;4.53;;;8.90;96.10;;;;;;4955198;28;20416;-76
2022/04/06 01:45:27;;;;;;;10.18;4.30;;;8.90;95.70;;;;;;4955072;28;20038;-75
2022/04/06 01:47:53;;;;;;;9.65;4.68;;;8.90;96.00;;;;;;4954973;28;20039;-75
2022/04/06 01:53:03;;;;;;;10.57;4.45;;;8.80;95.60;;;;;;4946046;28;20067;-75
2022/04/06 01:55:29;;;;;;;9.25;4.50;;;8.80;95.40;;;;;;4954780;29;20047;-75
2022/04/06 01:57:56;;;;;;;7.75;4.20;;;8.80;95.70;;;;;;4944431;29;20028;-75
2022/04/06 02:00:22;;;;;;;8.23;4.22;;;8.70;95.60;;;;;;4935482;29;20043;-75
2022/04/06 02:02:50;;;;;;;7.35;3.42;;;8.80;95.60;;;;;;4936210;29;20024;-76
2022/04/06 02:05:17;;;;;;;10.70;4.97;;;8.70;95.60;;;;;;4935754;29;20032;-75
2022/04/06 02:07:44;;;;;;;8.90;3.90;;;8.70;95.50;;;;;;4935869;29;20428;-75
2022/04/06 02:10:10;;;;;;;10.75;4.85;;;8.70;96.00;;;;;;4935439;29;20046;-76
2022/04/06 02:12:37;;;;;;;9.90;4.25;;;8.60;95.70;;;;;;4935282;29;20047;-75
2022/04/06 02:15:03;;;;;;;15.20;5.00;;;8.70;96.10;;;;;;4935488;29;20040;-75
2022/04/06 02:17:29;;;;;;;11.20;4.28;;;8.70;96.10;;;;;;4935311;29;20035;-76
2022/04/06 02:19:56;;;;;;;11.30;3.75;;;8.60;96.00;;;;;;4935568;29;20058;-75
2022/04/06 02:22:22;;;;;;;6.78;4.03;;;8.60;96.10;;;;;;4935534;29;20060;-75
2022/04/06 02:24:49;;;;;;;10.20;4.13;;;8.60;96.30;;;;;;4935293;29;20028;-76
2022/04/06 02:27:14;;;;;;;12.25;3.70;;;8.60;96.40;;;;;;4935705;29;20028;-75
2022/04/06 02:29:40;;;;;;;9.27;4.32;;;8.60;96.60;;;;;;4935472;29;20093;-75
2022/04/06 02:32:07;;;;;;;10.63;4.40;;;8.60;96.50;;;;;;4935413;29;20040;-75
2022/04/06 02:34:33;;;;;;;8.63;3.90;;;8.60;96.60;;;;;;4934667;29;20098;-76
2022/04/06 02:36:59;;;;;;;10.85;3.88;;;8.60;97.00;;;;;;4935228;29;20075;-75
2022/04/06 02:39:25;;;;;;;8.35;4.13;;;8.60;97.40;;;;;;4917667;29;20031;-75
2022/04/06 02:41:51;;;;;;;10.23;4.32;;;8.60;97.10;;;;;;4935316;29;20129;-75
2022/04/06 02:44:17;;;;;;;12.55;3.88;;;8.50;96.90;;;;;;4935158;29;20027;-76
2022/04/06 02:46:48;;;;;;;8.38;3.78;;;8.50;97.50;;;;;;4934781;29;20028;-75
2022/04/06 02:49:14;;;;;;;9.13;4.25;;;8.50;97.50;;;;;;4934780;29;20031;-75
2022/04/06 02:51:40;;;;;;;9.20;4.22;;;8.50;97.80;;;;;;4933628;29;20039;-75
2022/04/06 02:54:06;;;;;;;9.32;4.47;;;8.50;98.00;;;;;;4942851;28;20118;-76
2022/04/06 02:56:32;;;;;;;8.63;3.80;;;8.40;98.20;;;;;;4953987;29;20423;-76
2022/04/06 02:58:58;;;;;;;7.97;4.50;;;8.50;98.20;;;;;;4937324;29;20029;-75
2022/04/06 03:01:24;;;;;;;7.57;4.13;;;8.50;98.30;;;;;;4936520;29;20086;-76
2022/04/06 03:03:49;;;;;;;7.90;3.60;;;8.50;98.50;;;;;;4954204;29;20047;-76
2022/04/06 03:06:16;;;;;;;10.52;4.53;;;8.50;98.80;;;;;;4939172;29;20642;-75
2022/04/06 03:08:43;;;;;;;8.05;3.83;;;8.40;99.30;;;;;;4934137;29;20032;-75
2022/04/06 03:11:08;;;;;;;8.65;4.20;;;8.40;99.20;;;;;;4934921;29;20094;-75
2022/04/06 03:13:34;;;;;;;9.75;4.20;;;8.50;99.00;;;;;;4934777;29;20031;-75
2022/04/06 03:16:00;;;;;;;10.45;4.13;;;8.50;99.30;;;;;;4934483;29;20028;-76
2022/04/06 03:18:25;;;;;;;8.98;4.75;;;8.50;99.40;;;;;;4934754;29;20555;-75
2022/04/06 03:20:51;;;;;;;8.07;4.15;;;8.40;99.50;;;;;;4935010;29;20020;-75
2022/04/06 03:23:17;;;;;;;5.63;3.47;;;8.50;99.60;;;;;;4934753;29;20024;-75
2022/04/06 03:25:43;;;;;;;8.77;4.28;;;8.50;99.80;;;;;;4934435;29;20031;-76
2022/04/06 03:28:09;;;;;;;8.88;4.00;;;8.40;99.90;;;;;;4934611;29;20448;-75
2022/04/06 03:30:36;;;;;;;7.43;4.18;;;8.40;99.90;;;;;;4934282;29;20550;-75
2022/04/06 03:33:02;;;;;;;7.93;4.20;;;8.40;99.90;;;;;;4935147;29;20095;-75
2022/04/06 03:35:29;;;;;;;8.68;3.65;;;8.40;99.90;;;;;;4917808;29;20115;-75
2022/04/06 03:37:54;;;;;;;10.70;3.80;;;8.50;99.90;;;;;;4934219;29;20024;-75
2022/04/06 03:40:20;;;;;;;8.82;4.10;;;8.40;99.90;;;;;;4934235;29;20018;-76
2022/04/06 03:42:46;;;;;;;9.48;4.25;;;8.40;99.90;;;;;;4917348;29;20265;-75
2022/04/06 03:45:11;;;;;;;8.50;3.92;;;8.40;99.90;;;;;;4934839;29;20031;-75
2022/04/06 03:47:40;;;;;;;8.07;4.20;;;8.40;99.90;;;;;;4934558;29;20076;-75
2022/04/06 03:50:07;;;;;;;11.75;4.10;;;8.50;99.90;;;;;;4934695;29;20040;-75
2022/04/06 03:52:33;;;;;;;8.13;3.65;;;8.50;99.90;;;;;;4934318;29;20054;-75
2022/04/06 03:55:00;;;;;;;7.43;3.47;;;8.40;99.90;;;;;;4950110;29;20058;-75
2022/04/06 03:57:25;;;;;;;11.93;3.88;;;8.30;99.90;;;;;;4954263;28;20085;-76
2022/04/06 03:59:52;;;;;;;9.75;3.65;;;8.30;99.90;;;;;;4938204;29;20469;-76
2022/04/06 04:02:18;;;;;;;8.50;4.00;;;8.40;99.90;;;;;;4937985;29;20102;-75
2022/04/06 04:04:44;;;;;;;8.70;3.97;;;8.40;99.90;;;;;;4937893;29;20459;-75
2022/04/06 04:07:09;;;;;;;9.35;4.22;;;8.40;99.90;;;;;;4920638;29;20122;-76
2022/04/06 04:09:36;;;;;;;7.85;3.88;;;8.50;99.90;;;;;;4937599;29;20054;-76
2022/04/06 04:12:03;;;;;;;11.68;3.90;;;8.50;99.90;;;;;;4937346;29;20040;-75
2022/04/06 04:14:34;;;;;;;9.05;3.33;;;8.40;99.90;;;;;;4937912;29;20379;-75
2022/04/06 04:17:01;;;;;;;9.73;4.47;;;8.40;99.90;;;;;;4920717;29;20031;-75
2022/04/06 04:19:26;;;;;;;11.73;4.40;;;8.40;99.90;;;;;;4938031;29;20027;-79
2022/04/06 04:21:52;;;;;;;9.20;3.97;;;8.40;99.90;;;;;;4919886;29;20400;-79
2022/04/06 04:24:18;;;;;;;8.10;4.45;;;8.40;99.90;;;;;;4937586;29;20420;-78
2022/04/06 04:26:44;;;;;;;6.75;3.42;;;8.40;99.90;;;;;;4937323;29;20558;-79
2022/04/06 04:29:09;;;;;;;6.93;4.13;;;8.40;99.90;;;;;;4920824;29;20031;-77
2022/04/06 04:31:35;;;;;;;7.80;3.50;;;8.40;99.90;;;;;;4937691;29;20503;-77
2022/04/06 04:34:02;;;;;;;8.95;4.55;;;8.50;99.90;;;;;;4937458;29;20039;-77
2022/04/06 04:36:28;;;;;;;8.82;3.85;;;8.40;99.90;;;;;;4937402;29;20059;-77
2022/04/06 04:38:54;;;;;;;6.75;3.47;;;8.50;99.90;;;;;;4936399;29;20034;-79
2022/04/06 04:41:20;;;;;;;15.32;4.72;;;8.50;99.90;;;;;;4919713;29;20403;-77
2022/04/06 04:43:46;;;;;;;7.18;3.75;;;8.50;99.90;;;;;;4936808;29;20041;-78
2022/04/06 04:46:12;;;;;;;8.63;4.32;;;8.50;99.90;;;;;;4937063;29;20020;-78
2022/04/06 04:48:38;;;;;;;11.02;3.72;;;8.50;99.90;;;;;;4937351;29;20042;-77
2022/04/06 04:51:04;;;;;;;6.68;4.15;;;8.50;99.90;;;;;;4937011;29;20019;-76
2022/04/06 04:53:30;;;;;;;7.60;3.67;;;8.50;99.90;;;;;;4940678;28;20043;-77
2022/04/06 04:55:56;;;;;;;10.18;3.65;;;8.50;99.90;;;;;;4956014;28;20027;-77
2022/04/06 04:58:22;;;;;;;7.85;3.67;;;8.50;99.90;;;;;;4954897;28;20034;-77
2022/04/06 05:00:48;;;;;;;7.05;3.75;;;8.50;99.90;;;;;;4956063;28;20098;-76
2022/04/06 05:03:13;;;;;;;7.75;4.20;;;8.50;99.90;;;;;;4955896;28;20534;-76
2022/04/06 05:05:42;;;;;;;6.80;3.72;;;8.50;99.90;;;;;;4955232;28;20015;-76
2022/04/06 05:08:08;;;;;;;11.27;3.70;;;8.50;99.90;;;;;;4950727;28;20023;-77
2022/04/06 05:10:34;;;;;;;8.02;3.53;;;8.50;99.90;;;;;;4955707;28;20031;-77
2022/04/06 05:12:59;;;;;;;7.75;3.95;;;8.50;99.90;;;;;;4955368;28;20046;-77
2022/04/06 05:15:25;;;;;;;12.05;4.38;;;8.50;99.90;;;;;;4955181;28;20031;-77
2022/04/06 05:17:51;;;;;;;8.90;3.90;;;8.50;99.90;;;;;;4954145;28;20098;-75
2022/04/06 06:02:30;;;;;;;12.45;4.75;;;8.50;99.90;;;;;;5345421;23;20042;-80
2022/04/06 06:04:56;;;;;;;10.02;4.47;;;8.60;99.90;;;;;;4985679;28;20019;-80
2022/04/06 06:07:22;;;;;;;13.07;4.53;;;8.60;99.90;;;;;;4987998;28;20023;-82
2022/04/06 06:09:47;;;;;;;8.82;4.32;;;8.50;99.90;;;;;;4984056;28;20101;-81
2022/04/06 06:12:14;;;;;;;11.95;4.78;;;8.60;99.90;;;;;;4974653;28;20497;-81
2022/04/06 06:14:39;;;;;;;13.10;4.80;;;8.50;99.90;;;;;;4988375;28;20096;-82
2022/04/06 06:17:05;;;;;;;11.75;4.88;;;8.60;99.90;;;;;;4983133;28;20035;-81
2022/04/06 06:19:31;;;;;;;8.73;4.10;;;8.70;99.90;;;;;;4982209;28;20026;-81
2022/04/06 06:21:56;;;;;;;7.88;4.68;;;8.70;99.90;;;;;;4991090;28;20065;-82
2022/04/06 06:24:24;;;;;;;7.72;4.40;;;8.60;99.90;;;;;;4956749;28;20025;-81
2022/04/06 06:26:50;;;;;;;11.98;4.78;;;8.70;99.90;;;;;;4990496;28;20117;-82
2022/04/06 06:29:16;;;;;;;13.43;5.10;;;8.60;99.90;;;;;;4993295;28;20033;-81
2022/04/06 06:31:42;;;;;;;9.68;4.95;;;8.60;99.90;;;;;;4993177;28;20030;-81
2022/04/06 06:34:07;;;;;;;15.82;5.38;;;8.70;99.90;;;;;;4975694;28;20031;-82
2022/04/06 06:36:33;;;;;;;12.48;4.43;;;8.70;99.90;;;;;;4976066;28;20027;-81
2022/04/06 06:38:59;;;;;;;11.90;4.75;;;8.70;99.90;;;;;;4978368;28;20030;-82
2022/04/06 06:41:24;;;;;;;9.93;5.15;;;8.80;99.90;;;;;;4974236;28;20050;-81
2022/04/06 06:43:53;;;;;;;15.45;5.68;;;8.80;99.90;;;;;;4973619;28;20023;-81
2022/04/06 06:46:19;;;;;;;15.48;5.30;;;8.80;99.90;;;;;;4962139;28;20106;-81
2022/04/06 06:48:46;;;;;;;10.20;4.93;;;8.80;99.90;;;;;;4979844;28;20023;-81
2022/04/06 06:51:14;;;;;;;9.73;4.22;;;8.90;99.90;;;;;;4980284;28;20024;-81
2022/04/06 06:53:39;;;;;;;11.10;5.07;;;8.80;99.90;;;;;;4965111;28;20046;-82
2022/04/06 06:56:06;;;;;;;19.83;4.95;;;8.90;99.90;;;;;;4984172;28;20505;-81
2022/04/06 06:58:32;;;;;;;9.73;4.53;;;8.90;99.90;;;;;;4991202;28;20359;-82
2022/04/06 07:00:58;;;;;;;9.68;4.18;;;8.90;99.90;;;;;;4962216;28;20049;-81
2022/04/06 07:03:23;;;;;;;9.82;4.57;;;8.80;99.90;;;;;;4974013;28;20458;-82
2022/04/06 07:05:49;;;;;;;12.25;4.40;;;8.90;99.90;;;;;;5002769;28;20026;-81
2022/04/06 07:08:15;;;;;;;12.18;4.07;;;9.00;99.90;;;;;;4981502;28;20092;-81
2022/04/06 07:10:45;;;;;;;13.00;4.93;;;9.00;99.90;;;;;;5005273;28;20030;-81
2022/04/06 07:13:16;;;;;;;9.75;4.35;;;9.10;99.90;;;;;;5004383;28;20430;-81
2022/04/06 07:15:42;;;;;;;13.80;4.60;;;9.00;99.90;;;;;;4993198;28;20023;-81
2022/04/06 07:18:09;;;;;;;10.55;4.72;;;9.10;99.90;;;;;;4999809;28;20097;-81
2022/04/06 07:20:38;;;;;;;12.23;4.55;;;9.10;99.90;;;;;;5005774;28;20433;-81
2022/04/06 07:23:04;;;;;;;11.15;4.07;;;9.00;99.90;;;;;;4999199;28;20019;-81
2022/04/06 07:25:31;;;;;;;9.63;4.03;;;9.10;99.90;;;;;;5003950;28;20084;-81
2022/04/06 07:27:56;;;;;;;9.43;4.30;;;9.10;99.90;;;;;;5007720;28;20085;-81
2022/04/06 07:30:22;;;;;;;9.88;4.63;;;9.10;99.90;;;;;;5009041;28;20440;-81
2022/04/06 07:32:48;;;;;;;9.98;4.30;;;9.10;99.90;;;;;;4996986;28;20512;-80
2022/04/06 07:35:15;;;;;;;10.65;3.78;;;9.20;99.90;;;;;;4998617;28;20108;-81
2022/04/06 07:37:43;;;;;;;10.98;3.97;;;9.10;99.90;;;;;;5002252;28;20427;-82
2022/04/06 07:40:10;;;;;;;10.35;3.88;;;9.10;99.90;;;;;;5009766;28;20409;-81
2022/04/06 07:42:37;;;;;;;7.57;3.45;;;9.30;99.90;;;;;;5003453;28;20030;-81
2022/04/06 07:45:04;;;;;;;16.02;4.30;;;9.30;99.90;;;;;;5008030;28;20029;-81
2022/04/06 07:47:32;;;;;;;13.10;3.97;;;9.30;99.90;;;;;;5003237;28;20402;-81
2022/04/06 07:49:58;;;;;;;8.13;4.10;;;9.30;99.90;;;;;;5013044;28;20034;-82
2022/04/06 07:52:27;;;;;;;7.50;3.65;;;9.40;99.90;;;;;;5013504;28;20026;-80
2022/04/06 07:54:53;;;;;;;8.88;3.30;;;9.50;99.90;;;;;;4994780;28;20552;-81
2022/04/06 07:57:24;;;;;;;6.53;3.92;;;9.50;99.90;;;;;;5003730;28;20018;-80
2022/04/06 07:59:51;;;;;;;8.68;4.18;;;9.60;99.90;;;;;;4997386;28;20068;-80
2022/04/06 08:02:16;;;;;;;9.75;4.00;;;9.60;99.90;;;;;;5011067;28;20041;-80
2022/04/06 08:04:42;;;;;;;9.73;3.63;;;9.50;99.90;;;;;;4995719;28;20060;-81
2022/04/06 08:07:08;;;;;;;11.60;4.03;;;9.60;99.90;;;;;;5010856;28;20050;-81
2022/04/06 08:09:34;;;;;;;14.68;3.70;;;9.50;99.90;;;;;;5009097;28;20520;-82
2022/04/06 08:12:01;;;;;;;10.15;4.53;;;9.50;99.90;;;;;;4989579;28;20448;-81
2022/04/06 08:14:28;;;;;;;8.90;4.55;;;9.50;99.90;;;;;;4974227;28;20034;-82
2022/04/06 08:16:55;;;;;;;12.70;3.55;;;9.60;99.90;;;;;;4988649;28;20026;-81
2022/04/06 08:19:24;;;;;;;9.48;3.88;;;9.70;99.90;;;;;;4979585;28;20076;-81
2022/04/06 08:21:52;;;;;;;8.60;3.55;;;9.70;99.90;;;;;;5003242;28;20022;-80
2022/04/06 08:24:17;;;;;;;9.00;3.83;;;9.80;99.90;;;;;;5015305;28;20018;-81
2022/04/06 08:26:43;;;;;;;7.47;3.42;;;9.90;99.90;;;;;;5014207;28;20538;-81
2022/04/06 08:29:09;;;;;;;13.40;3.60;;;9.90;99.90;;;;;;4995412;28;20035;-81
2022/04/06 08:31:35;;;;;;;10.10;3.50;;;9.80;99.90;;;;;;4982639;28;20030;-80
2022/04/06 08:34:03;;;;;;;11.13;3.78;;;9.90;99.90;;;;;;4975892;28;20034;-81
2022/04/06 08:36:29;;;;;;;11.18;4.55;;;10.10;99.90;;;;;;4994893;28;20073;-80
2022/04/06 08:38:55;;;;;;;11.95;4.35;;;10.10;99.90;;;;;;4995003;28;20031;-81
2022/04/06 08:41:24;;;;;;;9.90;4.07;;;10.20;99.90;;;;;;4994985;28;20026;-81
2022/04/06 08:43:50;;;;;;;9.13;3.92;;;10.30;99.90;;;;;;4991573;28;20027;-81
2022/04/06 08:46:17;;;;;;;10.90;3.67;;;10.30;99.90;;;;;;4975713;28;20102;-81
2022/04/06 08:48:47;;;;;;;9.38;3.53;;;10.10;99.90;;;;;;5009898;28;20051;-81
2022/04/06 08:51:15;;;;;;;6.45;3.25;;;10.20;99.90;;;;;;4988274;28;20076;-81
2022/04/06 08:53:40;;;;;;;7.80;3.90;;;10.20;99.90;;;;;;4994812;28;20135;-82
2022/04/06 08:56:07;;;;;;;11.75;4.10;;;10.40;99.90;;;;;;4994711;28;20462;-81
2022/04/06 08:58:33;;;;;;;10.90;3.60;;;10.40;99.90;;;;;;4995023;28;20469;-83
2022/04/06 09:00:59;;;;;;;10.57;3.60;;;10.40;99.90;;;;;;4994633;28;20069;-81
2022/04/06 09:03:25;;;;;;;7.00;3.50;;;10.60;99.90;;;;;;4994200;28;20034;-81
2022/04/06 09:06:02;;;;;;;10.35;3.50;;;10.70;99.90;;;;;;4994813;28;20089;-78
2022/04/06 09:08:35;;;;;;;8.90;3.25;;;10.70;99.90;;;;;;4980869;28;20026;-81
2022/04/06 09:11:18;;;;;;;9.52;3.40;;;10.90;99.90;;;;;;4994791;28;20029;-81
2022/04/06 09:13:46;;;;;;;11.18;3.45;;;11.00;99.90;;;;;;4962772;28;20034;-81
2022/04/06 09:16:13;;;;;;;7.07;2.90;;;11.20;99.90;;;;;;4980566;28;20029;-82
2022/04/06 09:18:45;;;;;;;9.35;3.80;;;11.30;99.90;;;;;;4994380;28;20552;-81
2022/04/06 09:21:14;;;;;;;8.85;3.17;;;11.20;99.90;;;;;;4994653;28;20105;-81
2022/04/06 09:23:40;;;;;;;7.60;3.20;;;11.10;99.90;;;;;;4982569;28;20097;-81
2022/04/06 09:26:13;;;;;;;10.65;3.10;;;11.10;99.90;;;;;;5013888;28;20545;-82
2022/04/06 09:28:40;;;;;;;7.15;3.15;;;11.30;99.90;;;;;;5013275;28;20026;-81
2022/04/06 09:31:06;;;;;;;6.47;2.65;;;11.30;99.90;;;;;;4994137;28;20481;-82
2022/04/06 09:33:33;;;;;;;9.68;3.00;;;11.20;99.90;;;;;;4994169;28;20031;-82
2022/04/06 09:35:58;;;;;;;10.15;3.03;;;11.30;99.90;;;;;;4994128;28;20030;-83
2022/04/06 09:38:27;;;;;;;13.48;3.03;;;11.40;99.90;;;;;;4976724;28;20401;-83
2022/04/06 09:41:05;;;;;;;8.63;2.83;;;11.40;99.90;;;;;;4993302;28;20072;-82
2022/04/06 09:43:33;;;;;;;7.25;3.25;;;11.40;99.90;;;;;;4994056;28;20019;-82
2022/04/06 09:49:05;;;;;;;10.18;3.00;;;11.20;99.90;;;;;;4993701;28;20049;-82
2022/04/06 09:51:31;;;;;;;14.32;4.47;;;11.30;99.90;;;;;;4993989;28;20022;-82
2022/04/06 09:53:58;;;;;;;5.82;3.33;;;11.50;99.90;;;;;;4993190;28;20029;-82
2022/04/06 09:56:24;;;;;;;10.38;3.97;;;11.50;99.90;;;;;;4993134;28;20018;-82
2022/04/06 09:58:50;;;;;;;6.03;3.15;;;11.40;99.90;;;;;;4993678;28;20069;-81
2022/04/06 10:01:16;;;;;;;9.50;3.90;;;11.40;99.90;;;;;;4979292;28;20069;-82
2022/04/06 10:03:51;;;;;;;9.93;4.45;;;11.20;99.90;;;;;;4993419;28;20018;-82
2022/04/06 10:06:17;;;;;;;8.65;3.10;;;11.20;99.90;;;;;;5013019;28;20022;-81
2022/04/06 10:08:43;;;;;;;10.55;3.45;;;11.40;99.90;;;;;;4999748;28;20427;-84
2022/04/06 10:11:11;;;;;;;10.98;3.15;;;11.40;99.90;;;;;;4987808;28;20018;-82
2022/04/06 10:13:38;;;;;;;6.47;2.92;;;11.30;99.90;;;;;;4994232;28;20072;-82
2022/04/06 10:16:07;;;;;;;12.20;3.17;;;11.30;99.90;;;;;;4993171;28;20026;-82
2022/04/06 10:18:34;;;;;;;6.03;2.90;;;11.40;99.90;;;;;;4992965;28;20478;-82
2022/04/06 10:21:10;;;;;;;4.82;3.13;;;11.30;99.90;;;;;;4992660;28;20038;-83
2022/04/06 10:23:39;;;;;;;12.02;2.75;;;11.40;99.90;;;;;;4991634;28;20077;-83
2022/04/06 10:26:41;;;;;;;5.97;3.05;;;11.40;99.90;;;;;;4992876;28;20045;-82
2022/04/06 10:29:08;;;;;;;;;;;11.30;99.90;;;;;;4993372;28;20084;-82
2022/04/06 10:31:33;;;;;;;9.60;2.55;;;11.30;99.90;;;;;;4993085;28;19941;-81
2022/04/06 10:34:24;;;;;;;8.25;3.67;;;11.30;99.90;;;;;;4998573;28;20057;-82
2022/04/06 10:37:12;;;;;;;7.70;2.85;;;11.20;99.90;;;;;;4985655;28;20037;-78
2022/04/06 10:39:57;;;;;;;7.93;3.58;;;11.20;99.90;;;;;;4992993;28;20015;-77
2022/04/06 10:42:37;;;;;;;6.65;2.78;;;11.40;99.90;;;;;;4973679;28;20540;-80
2022/04/06 10:45:29;;;;;;;8.15;3.17;;;11.30;99.90;;;;;;4986402;28;20066;-80
2022/04/06 10:48:20;;;;;;;6.85;3.03;;;11.40;99.90;;;;;;4975356;28;20057;-82
2022/04/06 10:50:48;;;;;;;9.10;2.67;;;11.30;99.90;;;;;;4993183;28;20436;-81
2022/04/06 10:53:34;;;;;;;8.07;2.38;;;11.30;99.90;;;;;;4992689;28;20057;-82
2022/04/06 10:56:12;;;;;;;6.88;2.33;;;11.40;99.90;;;;;;4992480;28;20042;-81
2022/04/06 10:58:55;;;;;;;10.77;3.47;;;11.40;99.90;;;;;;4993043;28;20033;-87
2022/04/06 11:01:35;;;;;;;8.00;3.40;;;11.30;99.90;;;;;;4991792;28;20047;-82
2022/04/06 11:04:16;;;;;;;4.25;2.28;;;11.30;99.90;;;;;;4993564;28;20430;-82
2022/04/06 11:06:44;;;;;;;7.82;2.83;;;11.30;99.90;;;;;;4996752;28;20561;-82
2022/04/06 11:12:12;;;;;;;12.07;2.97;;;11.20;99.90;;;;;;4997058;28;20044;-81
2022/04/06 11:14:39;;;;;;;5.15;2.50;;;11.30;99.90;;;;;;4984776;28;20581;-82
2022/04/06 11:17:44;;;;;;;5.88;2.50;;;11.40;99.90;;;;;;4976964;28;20062;-80
2022/04/06 11:20:21;;;;;;;15.40;3.10;;;11.20;99.90;;;;;;4974273;28;20035;-81
2022/04/06 11:22:53;;;;;;;6.85;2.97;;;11.20;99.90;;;;;;4983187;28;20482;-81
2022/04/06 11:25:20;;;;;;;;;;;11.20;99.90;;;;;;5016850;28;20485;-81
2022/04/06 11:27:47;;;;;;;9.90;3.10;;;11.30;99.90;;;;;;5016230;28;19909;-81
2022/04/06 11:30:16;;;;;;;8.23;2.80;;;11.30;99.90;;;;;;4998499;28;20120;-81
2022/04/06 11:32:45;;;;;;;6.80;3.17;;;11.20;99.90;;;;;;5016428;28;20064;-81
2022/04/06 11:35:12;;;;;;;7.00;2.60;;;11.20;99.90;;;;;;5015647;28;20033;-81
2022/04/06 11:37:43;;;;;;;20.38;4.28;;;11.20;99.90;;;;;;5016222;28;20026;-83
2022/04/06 11:40:10;;;;;;;6.90;2.85;;;11.10;99.90;;;;;;5015811;28;20026;-78
2022/04/06 11:42:36;;;;;;;5.82;2.70;;;11.00;99.90;;;;;;4998546;28;20076;-83
2022/04/06 11:45:02;;;;;;;7.60;2.60;;;11.10;99.90;;;;;;4998278;28;20030;-81
2022/04/06 11:47:32;;;;;;;6.20;2.38;;;11.10;99.90;;;;;;4999300;28;20023;-81
2022/04/06 11:49:58;;;;;;;7.45;2.65;;;11.30;99.90;;;;;;4966846;28;20557;-81
2022/04/06 11:52:24;;;;;;;6.90;3.17;;;11.30;99.90;;;;;;4978812;28;20039;-81
2022/04/06 11:54:57;;;;;;;7.75;2.80;;;11.10;99.90;;;;;;5000913;28;20037;-82
2022/04/06 11:57:37;;;;;;;4.78;2.60;;;11.10;99.90;;;;;;4996108;28;20027;-82
2022/04/06 12:00:09;;;;;;;11.52;2.80;;;11.00;99.90;;;;;;4995993;28;20126;-82
2022/04/06 12:02:56;;;;;;;7.13;2.83;;;11.00;99.90;;;;;;4971249;28;20039;-82
2022/04/06 12:05:24;;;;;;;7.07;2.97;;;11.00;99.90;;;;;;4975033;28;20994;-82
2022/04/06 12:08:12;;;;;;;6.00;2.40;;;11.00;99.90;;;;;;4976687;28;20026;-81
2022/04/06 12:10:52;;;;;;;6.07;2.50;;;11.00;99.90;;;;;;4995875;28;20097;-82
2022/04/06 12:13:19;;;;;;;6.20;2.50;;;10.90;99.90;;;;;;4995875;28;20394;-82
2022/04/06 12:15:48;;;;;;;5.60;2.65;;;11.10;99.90;;;;;;4992072;28;20411;-82
2022/04/06 12:18:18;;;;;;;5.82;2.17;;;11.00;99.90;;;;;;4973860;28;20046;-81
2022/04/06 12:20:46;;;;;;;5.22;2.70;;;11.10;99.90;;;;;;5009475;28;20029;-82
2022/04/06 12:23:12;;;;;;;6.25;2.80;;;11.00;99.90;;;;;;4998452;28;20022;-82
2022/04/06 12:25:38;;;;;;;8.43;2.85;;;11.00;99.90;;;;;;5009893;28;20486;-82
2022/04/06 12:28:13;;;;;;;10.55;3.25;;;10.80;99.90;;;;;;4995265;28;20109;-82
2022/04/06 12:30:52;;;;;;;8.70;3.53;;;10.90;99.90;;;;;;4995601;28;20026;-82
2022/04/06 12:33:36;;;;;;;5.35;3.00;;;11.00;99.90;;;;;;4977543;28;20907;-82
2022/04/06 12:36:12;;;;;;;4.80;2.85;;;11.10;99.90;;;;;;4995383;28;20029;-82
2022/04/06 12:38:40;;;;;;;7.03;3.05;;;11.00;99.90;;;;;;4995142;28;20026;-82
2022/04/06 12:41:11;;;;;;;7.78;2.95;;;10.90;99.90;;;;;;4995063;28;20122;-82
2022/04/06 12:43:44;;;;;;;3.70;2.50;;;11.00;99.90;;;;;;4995463;28;20045;-82
2022/04/06 12:46:10;;;;;;;9.82;3.17;;;11.00;99.90;;;;;;4991916;28;20033;-82
2022/04/06 12:48:36;;;;;;;6.35;2.97;;;11.10;99.90;;;;;;4989607;28;20098;-82
2022/04/06 12:51:21;;;;;;;4.95;2.28;;;11.00;99.90;;;;;;4975700;28;20550;-81
2022/04/06 12:53:51;;;;;;;5.00;2.13;;;11.00;99.90;;;;;;4975686;28;20390;-81
2022/04/06 12:56:24;;;;;;;6.32;2.75;;;11.00;99.90;;;;;;4958212;28;20070;-81
2022/04/06 12:59:09;;;;;;;8.70;2.65;;;10.90;99.90;;;;;;4975573;28;20027;-81
2022/04/06 13:01:49;;;;;;;4.72;2.75;;;11.10;99.90;;;;;;4979942;28;20053;-82
2022/04/06 13:04:15;;;;;;;9.70;2.53;;;11.00;99.90;;;;;;4994435;28;20035;-81
2022/04/06 13:06:41;;;;;;;4.90;2.58;;;10.90;99.90;;;;;;4977135;28;20034;-81
2022/04/06 13:09:13;;;;;;;6.07;2.95;;;10.80;99.90;;;;;;4994685;28;20030;-82
2022/04/06 13:11:39;;;;;;;;;;;11.00;99.90;;;;;;4977888;28;20018;-81
2022/04/06 13:14:06;;;;;;;8.02;2.35;;;10.90;99.90;;;;;;4994585;28;20436;-82
2022/04/06 13:16:33;;;;;;;4.90;2.63;;;10.80;99.90;;;;;;4998249;28;20018;-82
2022/04/06 13:19:00;;;;;;;8.13;3.03;;;10.90;99.90;;;;;;5014113;28;20026;-82
2022/04/06 13:21:27;;;;;;;5.70;2.60;;;10.70;99.90;;;;;;5014109;28;20519;-81
2022/04/06 13:23:53;;;;;;;5.95;2.55;;;10.80;99.90;;;;;;4986333;28;20431;-82
2022/04/06 13:26:19;;;;;;;7.10;2.97;;;10.80;99.90;;;;;;4974871;28;20081;-81
2022/04/06 13:28:45;;;;;;;5.80;2.90;;;10.70;99.90;;;;;;4975611;28;20031;-82
2022/04/06 13:31:11;;;;;;;5.53;2.45;;;10.60;99.90;;;;;;4993385;28;20568;-81
2022/04/06 13:33:38;;;;;;;4.65;2.58;;;10.70;99.90;;;;;;4994462;28;20370;-84
2022/04/06 13:36:04;;;;;;;7.35;2.92;;;10.60;99.90;;;;;;4976959;28;20033;-82
2022/04/06 13:38:30;;;;;;;3.90;2.50;;;10.70;99.90;;;;;;4994333;28;20522;-82
2022/04/06 13:40:56;;;;;;;4.78;2.80;;;10.70;99.90;;;;;;5004315;28;20026;-81
2022/04/06 13:43:21;;;;;;;5.70;3.17;;;10.80;99.90;;;;;;5011856;28;20048;-82
2022/04/06 13:45:47;;;;;;;4.18;2.90;;;10.80;99.90;;;;;;4989590;28;20083;-81
2022/04/06 13:48:13;;;;;;;6.50;2.97;;;10.90;99.90;;;;;;4957093;28;20143;-82